sensor_id;sensor_type;location;lat;lon;timestamp;P1;durP1;ratioP1;P2;durP2;ratioP2
45728;SDS011;31439;53.512;10.206;2024-02-16T00:01:57;6.35;;;3.80;;
45728;SDS011;31439;53.512;10.206;2024-02-16T00:04:23;6.70;;;3.50;;
45728;SDS011;31439;53.512;10.206;2024-02-16T00:06:49;9.25;;;4.10;;
45728;SDS011;31439;53.512;10.206;2024-02-16T00:09:15;6.88;;;3.72;;
45728;SDS011;31439;53.512;10.206;2024-02-16T00:11:42;7.13;;;3.38;;
45728;SDS011;31439;53.512;10.206;2024-02-16T00:14:09;7.82;;;3.38;;
45728;SDS011;31439;53.512;10.206;2024-02-16T00:16:35;8.52;;;3.75;;
45728;SDS011;31439;53.512;10.206;2024-02-16T00:19:01;5.18;;;3.22;;
45728;SDS011;31439;53.512;10.206;2024-02-16T00:21:27;7.15;;;3.58;;
45728;SDS011;31439;53.512;10.206;2024-02-16T00:23:54;5.53;;;3.55;;
45728;SDS011;31439;53.512;10.206;2024-02-16T00:26:21;9.10;;;3.30;;
45728;SDS011;31439;53.512;10.206;2024-02-16T00:28:48;6.93;;;3.13;;
45728;SDS011;31439;53.512;10.206;2024-02-16T00:31:14;6.35;;;3.30;;
45728;SDS011;31439;53.512;10.206;2024-02-16T00:33:40;10.68;;;3.35;;
45728;SDS011;31439;53.512;10.206;2024-02-16T00:36:06;5.85;;;3.08;;
45728;SDS011;31439;53.512;10.206;2024-02-16T00:38:34;5.57;;;3.35;;
45728;SDS011;31439;53.512;10.206;2024-02-16T00:41:01;6.47;;;3.22;;
45728;SDS011;31439;53.512;10.206;2024-02-16T00:43:27;8.38;;;3.38;;
45728;SDS011;31439;53.512;10.206;2024-02-16T00:45:53;7.88;;;3.70;;
45728;SDS011;31439;53.512;10.206;2024-02-16T00:48:21;7.03;;;3.13;;
45728;SDS011;31439;53.512;10.206;2024-02-16T00:50:47;6.10;;;3.35;;
45728;SDS011;31439;53.512;10.206;2024-02-16T00:53:13;9.05;;;3.55;;
45728;SDS011;31439;53.512;10.206;2024-02-16T00:55:39;7.40;;;3.35;;
45728;SDS011;31439;53.512;10.206;2024-02-16T00:58:06;5.45;;;3.13;;
45728;SDS011;31439;53.512;10.206;2024-02-16T01:00:32;7.03;;;3.10;;
45728;SDS011;31439;53.512;10.206;2024-02-16T01:02:58;5.90;;;3.13;;
45728;SDS011;31439;53.512;10.206;2024-02-16T01:05:24;7.55;;;3.38;;
45728;SDS011;31439;53.512;10.206;2024-02-16T01:07:51;8.70;;;3.33;;
45728;SDS011;31439;53.512;10.206;2024-02-16T01:10:17;6.03;;;3.30;;
45728;SDS011;31439;53.512;10.206;2024-02-16T01:12:43;6.90;;;3.40;;
45728;SDS011;31439;53.512;10.206;2024-02-16T01:15:09;6.32;;;3.25;;
45728;SDS011;31439;53.512;10.206;2024-02-16T01:17:36;6.32;;;3.60;;
45728;SDS011;31439;53.512;10.206;2024-02-16T01:20:02;6.40;;;3.15;;
45728;SDS011;31439;53.512;10.206;2024-02-16T01:22:29;7.82;;;3.50;;
45728;SDS011;31439;53.512;10.206;2024-02-16T01:24:55;11.82;;;4.40;;
45728;SDS011;31439;53.512;10.206;2024-02-16T01:27:21;7.80;;;3.88;;
45728;SDS011;31439;53.512;10.206;2024-02-16T01:29:47;6.93;;;3.80;;
45728;SDS011;31439;53.512;10.206;2024-02-16T01:32:13;5.93;;;3.40;;
45728;SDS011;31439;53.512;10.206;2024-02-16T01:34:39;7.85;;;3.17;;
45728;SDS011;31439;53.512;10.206;2024-02-16T01:37:05;5.57;;;3.20;;
45728;SDS011;31439;53.512;10.206;2024-02-16T01:39:31;9.05;;;3.58;;
45728;SDS011;31439;53.512;10.206;2024-02-16T01:41:57;6.05;;;3.42;;
45728;SDS011;31439;53.512;10.206;2024-02-16T01:44:24;6.80;;;3.30;;
45728;SDS011;31439;53.512;10.206;2024-02-16T01:46:50;6.80;;;3.50;;
45728;SDS011;31439;53.512;10.206;2024-02-16T01:49:16;9.82;;;3.40;;
45728;SDS011;31439;53.512;10.206;2024-02-16T01:51:42;7.55;;;3.40;;
45728;SDS011;31439;53.512;10.206;2024-02-16T01:54:09;8.98;;;3.88;;
45728;SDS011;31439;53.512;10.206;2024-02-16T01:56:35;7.53;;;3.55;;
45728;SDS011;31439;53.512;10.206;2024-02-16T01:59:01;7.18;;;3.53;;
45728;SDS011;31439;53.512;10.206;2024-02-16T02:01:28;7.25;;;3.47;;
45728;SDS011;31439;53.512;10.206;2024-02-16T02:03:54;10.40;;;3.67;;
45728;SDS011;31439;53.512;10.206;2024-02-16T02:06:20;5.32;;;3.42;;
45728;SDS011;31439;53.512;10.206;2024-02-16T02:08:46;6.45;;;3.42;;
45728;SDS011;31439;53.512;10.206;2024-02-16T02:11:12;7.53;;;2.97;;
45728;SDS011;31439;53.512;10.206;2024-02-16T02:13:38;7.22;;;3.42;;
45728;SDS011;31439;53.512;10.206;2024-02-16T02:16:04;5.78;;;3.60;;
45728;SDS011;31439;53.512;10.206;2024-02-16T02:18:31;7.53;;;3.53;;
45728;SDS011;31439;53.512;10.206;2024-02-16T02:20:57;7.43;;;3.80;;
45728;SDS011;31439;53.512;10.206;2024-02-16T02:23:24;9.68;;;3.33;;
45728;SDS011;31439;53.512;10.206;2024-02-16T02:25:50;7.63;;;3.28;;
45728;SDS011;31439;53.512;10.206;2024-02-16T02:28:16;9.68;;;3.20;;
45728;SDS011;31439;53.512;10.206;2024-02-16T02:30:42;9.50;;;3.75;;
45728;SDS011;31439;53.512;10.206;2024-02-16T02:33:10;5.25;;;3.28;;
45728;SDS011;31439;53.512;10.206;2024-02-16T02:35:38;6.97;;;3.42;;
45728;SDS011;31439;53.512;10.206;2024-02-16T02:38:04;6.50;;;3.60;;
45728;SDS011;31439;53.512;10.206;2024-02-16T02:40:30;8.27;;;3.47;;
45728;SDS011;31439;53.512;10.206;2024-02-16T02:42:57;5.75;;;3.35;;
45728;SDS011;31439;53.512;10.206;2024-02-16T02:45:23;6.40;;;3.47;;
45728;SDS011;31439;53.512;10.206;2024-02-16T02:47:50;9.77;;;3.35;;
45728;SDS011;31439;53.512;10.206;2024-02-16T02:50:16;6.57;;;3.20;;
45728;SDS011;31439;53.512;10.206;2024-02-16T02:52:43;10.18;;;3.50;;
45728;SDS011;31439;53.512;10.206;2024-02-16T02:55:10;6.78;;;3.28;;
45728;SDS011;31439;53.512;10.206;2024-02-16T02:57:36;10.27;;;3.50;;
45728;SDS011;31439;53.512;10.206;2024-02-16T03:00:06;7.70;;;3.35;;
45728;SDS011;31439;53.512;10.206;2024-02-16T03:02:36;8.82;;;3.22;;
45728;SDS011;31439;53.512;10.206;2024-02-16T03:05:04;7.15;;;3.20;;
45728;SDS011;31439;53.512;10.206;2024-02-16T03:07:30;9.32;;;3.47;;
45728;SDS011;31439;53.512;10.206;2024-02-16T03:09:56;8.23;;;3.33;;
45728;SDS011;31439;53.512;10.206;2024-02-16T03:12:22;4.10;;;2.92;;
45728;SDS011;31439;53.512;10.206;2024-02-16T03:14:48;7.63;;;3.28;;
45728;SDS011;31439;53.512;10.206;2024-02-16T03:17:14;8.10;;;3.05;;
45728;SDS011;31439;53.512;10.206;2024-02-16T03:19:40;5.45;;;3.38;;
45728;SDS011;31439;53.512;10.206;2024-02-16T03:22:06;8.98;;;3.53;;
45728;SDS011;31439;53.512;10.206;2024-02-16T03:24:33;7.68;;;3.25;;
45728;SDS011;31439;53.512;10.206;2024-02-16T03:26:59;6.70;;;3.38;;
45728;SDS011;31439;53.512;10.206;2024-02-16T03:29:25;6.40;;;3.60;;
45728;SDS011;31439;53.512;10.206;2024-02-16T03:31:51;10.25;;;3.58;;
45728;SDS011;31439;53.512;10.206;2024-02-16T03:34:18;8.45;;;3.47;;
45728;SDS011;31439;53.512;10.206;2024-02-16T03:36:44;5.15;;;2.83;;
45728;SDS011;31439;53.512;10.206;2024-02-16T03:39:10;8.27;;;3.15;;
45728;SDS011;31439;53.512;10.206;2024-02-16T03:41:36;7.45;;;3.10;;
45728;SDS011;31439;53.512;10.206;2024-02-16T03:44:02;5.68;;;3.00;;
45728;SDS011;31439;53.512;10.206;2024-02-16T03:46:28;6.82;;;3.50;;
45728;SDS011;31439;53.512;10.206;2024-02-16T03:48:55;5.32;;;2.97;;
45728;SDS011;31439;53.512;10.206;2024-02-16T03:51:21;8.15;;;3.33;;
45728;SDS011;31439;53.512;10.206;2024-02-16T03:53:47;5.95;;;3.20;;
45728;SDS011;31439;53.512;10.206;2024-02-16T03:56:22;4.90;;;2.83;;
45728;SDS011;31439;53.512;10.206;2024-02-16T03:58:48;6.40;;;3.10;;
45728;SDS011;31439;53.512;10.206;2024-02-16T04:01:14;6.03;;;3.28;;
45728;SDS011;31439;53.512;10.206;2024-02-16T04:03:40;6.25;;;3.38;;
45728;SDS011;31439;53.512;10.206;2024-02-16T04:06:07;6.53;;;3.40;;
45728;SDS011;31439;53.512;10.206;2024-02-16T04:08:33;8.25;;;2.90;;
45728;SDS011;31439;53.512;10.206;2024-02-16T04:10:59;4.80;;;2.92;;
45728;SDS011;31439;53.512;10.206;2024-02-16T04:13:25;6.47;;;3.30;;
45728;SDS011;31439;53.512;10.206;2024-02-16T04:15:51;5.30;;;3.40;;
45728;SDS011;31439;53.512;10.206;2024-02-16T04:18:17;8.23;;;3.15;;
45728;SDS011;31439;53.512;10.206;2024-02-16T04:20:44;6.63;;;2.92;;
45728;SDS011;31439;53.512;10.206;2024-02-16T04:23:10;5.57;;;3.08;;
45728;SDS011;31439;53.512;10.206;2024-02-16T04:25:36;7.47;;;3.05;;
45728;SDS011;31439;53.512;10.206;2024-02-16T04:28:02;5.55;;;2.92;;
45728;SDS011;31439;53.512;10.206;2024-02-16T04:30:28;6.82;;;2.90;;
45728;SDS011;31439;53.512;10.206;2024-02-16T04:32:54;5.93;;;3.15;;
45728;SDS011;31439;53.512;10.206;2024-02-16T04:35:20;6.65;;;3.20;;
45728;SDS011;31439;53.512;10.206;2024-02-16T04:37:46;6.50;;;3.13;;
45728;SDS011;31439;53.512;10.206;2024-02-16T04:40:12;6.97;;;3.15;;
45728;SDS011;31439;53.512;10.206;2024-02-16T04:42:38;7.90;;;3.28;;
45728;SDS011;31439;53.512;10.206;2024-02-16T04:45:07;5.53;;;3.13;;
45728;SDS011;31439;53.512;10.206;2024-02-16T04:47:33;6.15;;;3.30;;
45728;SDS011;31439;53.512;10.206;2024-02-16T04:50:00;9.20;;;3.05;;
45728;SDS011;31439;53.512;10.206;2024-02-16T04:52:26;5.97;;;2.90;;
45728;SDS011;31439;53.512;10.206;2024-02-16T04:54:52;7.15;;;2.90;;
45728;SDS011;31439;53.512;10.206;2024-02-16T04:57:18;7.22;;;3.08;;
45728;SDS011;31439;53.512;10.206;2024-02-16T04:59:44;4.85;;;2.97;;
45728;SDS011;31439;53.512;10.206;2024-02-16T05:02:10;7.38;;;3.00;;
45728;SDS011;31439;53.512;10.206;2024-02-16T05:04:36;6.43;;;2.80;;
45728;SDS011;31439;53.512;10.206;2024-02-16T05:07:02;8.88;;;2.60;;
45728;SDS011;31439;53.512;10.206;2024-02-16T05:09:28;6.32;;;3.13;;
45728;SDS011;31439;53.512;10.206;2024-02-16T05:11:57;7.18;;;2.80;;
45728;SDS011;31439;53.512;10.206;2024-02-16T05:14:23;4.53;;;2.80;;
45728;SDS011;31439;53.512;10.206;2024-02-16T05:16:49;6.03;;;2.95;;
45728;SDS011;31439;53.512;10.206;2024-02-16T05:19:16;6.00;;;2.67;;
45728;SDS011;31439;53.512;10.206;2024-02-16T05:21:42;6.50;;;3.15;;
45728;SDS011;31439;53.512;10.206;2024-02-16T05:24:08;8.30;;;3.10;;
45728;SDS011;31439;53.512;10.206;2024-02-16T05:26:34;5.15;;;2.55;;
45728;SDS011;31439;53.512;10.206;2024-02-16T05:29:02;6.97;;;2.70;;
45728;SDS011;31439;53.512;10.206;2024-02-16T05:31:29;5.85;;;2.90;;
45728;SDS011;31439;53.512;10.206;2024-02-16T05:33:56;4.65;;;2.65;;
45728;SDS011;31439;53.512;10.206;2024-02-16T05:36:22;5.10;;;2.85;;
45728;SDS011;31439;53.512;10.206;2024-02-16T05:38:55;4.85;;;2.20;;
45728;SDS011;31439;53.512;10.206;2024-02-16T05:41:24;5.95;;;2.40;;
45728;SDS011;31439;53.512;10.206;2024-02-16T05:43:50;4.45;;;2.30;;
45728;SDS011;31439;53.512;10.206;2024-02-16T05:46:16;3.97;;;2.55;;
45728;SDS011;31439;53.512;10.206;2024-02-16T05:48:43;6.72;;;2.50;;
45728;SDS011;31439;53.512;10.206;2024-02-16T05:51:10;6.53;;;2.80;;
45728;SDS011;31439;53.512;10.206;2024-02-16T05:53:37;5.60;;;2.42;;
45728;SDS011;31439;53.512;10.206;2024-02-16T05:56:04;6.93;;;2.65;;
45728;SDS011;31439;53.512;10.206;2024-02-16T05:58:30;4.95;;;2.47;;
45728;SDS011;31439;53.512;10.206;2024-02-16T06:00:56;3.83;;;2.33;;
45728;SDS011;31439;53.512;10.206;2024-02-16T06:03:22;6.32;;;2.63;;
45728;SDS011;31439;53.512;10.206;2024-02-16T06:05:48;4.78;;;2.40;;
45728;SDS011;31439;53.512;10.206;2024-02-16T06:08:15;4.90;;;2.38;;
45728;SDS011;31439;53.512;10.206;2024-02-16T06:10:42;9.00;;;2.53;;
45728;SDS011;31439;53.512;10.206;2024-02-16T06:13:09;9.05;;;2.70;;
45728;SDS011;31439;53.512;10.206;2024-02-16T06:15:35;10.13;;;2.50;;
45728;SDS011;31439;53.512;10.206;2024-02-16T06:18:03;9.68;;;3.28;;
45728;SDS011;31439;53.512;10.206;2024-02-16T06:20:29;15.05;;;3.17;;
45728;SDS011;31439;53.512;10.206;2024-02-16T06:22:55;27.42;;;5.97;;
45728;SDS011;31439;53.512;10.206;2024-02-16T06:25:21;21.65;;;5.38;;
45728;SDS011;31439;53.512;10.206;2024-02-16T06:27:47;7.90;;;2.50;;
45728;SDS011;31439;53.512;10.206;2024-02-16T06:30:15;4.95;;;2.70;;
45728;SDS011;31439;53.512;10.206;2024-02-16T06:32:41;4.72;;;2.35;;
45728;SDS011;31439;53.512;10.206;2024-02-16T06:35:08;11.85;;;2.35;;
45728;SDS011;31439;53.512;10.206;2024-02-16T06:37:34;6.00;;;2.90;;
45728;SDS011;31439;53.512;10.206;2024-02-16T06:40:02;5.97;;;2.65;;
45728;SDS011;31439;53.512;10.206;2024-02-16T06:42:29;10.43;;;3.10;;
45728;SDS011;31439;53.512;10.206;2024-02-16T06:44:55;4.47;;;2.42;;
45728;SDS011;31439;53.512;10.206;2024-02-16T06:47:21;12.98;;;3.30;;
45728;SDS011;31439;53.512;10.206;2024-02-16T06:49:50;11.45;;;2.40;;
45728;SDS011;31439;53.512;10.206;2024-02-16T06:52:16;6.32;;;2.75;;
45728;SDS011;31439;53.512;10.206;2024-02-16T06:54:42;9.73;;;3.08;;
45728;SDS011;31439;53.512;10.206;2024-02-16T06:57:08;16.30;;;3.40;;
45728;SDS011;31439;53.512;10.206;2024-02-16T06:59:34;13.95;;;3.67;;
45728;SDS011;31439;53.512;10.206;2024-02-16T07:02:00;16.70;;;3.47;;
45728;SDS011;31439;53.512;10.206;2024-02-16T07:04:27;13.38;;;3.10;;
45728;SDS011;31439;53.512;10.206;2024-02-16T07:06:53;6.90;;;2.95;;
45728;SDS011;31439;53.512;10.206;2024-02-16T07:09:19;15.93;;;3.97;;
45728;SDS011;31439;53.512;10.206;2024-02-16T07:11:47;8.57;;;3.47;;
45728;SDS011;31439;53.512;10.206;2024-02-16T07:14:15;5.90;;;2.80;;
45728;SDS011;31439;53.512;10.206;2024-02-16T07:16:41;7.20;;;3.05;;
45728;SDS011;31439;53.512;10.206;2024-02-16T07:19:07;9.10;;;2.70;;
45728;SDS011;31439;53.512;10.206;2024-02-16T07:21:33;16.73;;;4.10;;
45728;SDS011;31439;53.512;10.206;2024-02-16T07:23:59;9.52;;;3.65;;
45728;SDS011;31439;53.512;10.206;2024-02-16T07:26:26;21.00;;;4.45;;
45728;SDS011;31439;53.512;10.206;2024-02-16T07:28:52;45.20;;;6.88;;
45728;SDS011;31439;53.512;10.206;2024-02-16T07:31:18;15.25;;;4.22;;
45728;SDS011;31439;53.512;10.206;2024-02-16T07:33:44;33.75;;;5.10;;
45728;SDS011;31439;53.512;10.206;2024-02-16T07:36:10;11.88;;;2.85;;
45728;SDS011;31439;53.512;10.206;2024-02-16T07:38:36;4.82;;;2.72;;
45728;SDS011;31439;53.512;10.206;2024-02-16T07:41:08;6.25;;;2.83;;
45728;SDS011;31439;53.512;10.206;2024-02-16T07:43:39;28.73;;;4.97;;
45728;SDS011;31439;53.512;10.206;2024-02-16T07:46:05;14.07;;;3.85;;
45728;SDS011;31439;53.512;10.206;2024-02-16T07:48:33;9.60;;;3.00;;
45728;SDS011;31439;53.512;10.206;2024-02-16T07:51:00;6.15;;;2.50;;
45728;SDS011;31439;53.512;10.206;2024-02-16T07:53:28;5.45;;;2.75;;
45728;SDS011;31439;53.512;10.206;2024-02-16T07:55:54;6.60;;;2.80;;
45728;SDS011;31439;53.512;10.206;2024-02-16T07:58:20;6.95;;;2.30;;
45728;SDS011;31439;53.512;10.206;2024-02-16T08:00:46;16.13;;;2.72;;
45728;SDS011;31439;53.512;10.206;2024-02-16T08:03:12;7.57;;;2.67;;
45728;SDS011;31439;53.512;10.206;2024-02-16T08:05:39;10.57;;;2.67;;
45728;SDS011;31439;53.512;10.206;2024-02-16T08:08:05;13.38;;;2.70;;
45728;SDS011;31439;53.512;10.206;2024-02-16T08:10:31;9.32;;;3.00;;
45728;SDS011;31439;53.512;10.206;2024-02-16T08:12:57;6.60;;;2.60;;
45728;SDS011;31439;53.512;10.206;2024-02-16T08:15:23;13.73;;;3.47;;
45728;SDS011;31439;53.512;10.206;2024-02-16T08:17:51;10.73;;;3.00;;
45728;SDS011;31439;53.512;10.206;2024-02-16T08:20:17;21.02;;;3.55;;
45728;SDS011;31439;53.512;10.206;2024-02-16T08:22:43;9.05;;;2.90;;
45728;SDS011;31439;53.512;10.206;2024-02-16T08:25:09;9.70;;;2.63;;
45728;SDS011;31439;53.512;10.206;2024-02-16T08:27:35;7.13;;;2.47;;
45728;SDS011;31439;53.512;10.206;2024-02-16T08:30:03;6.50;;;2.63;;
45728;SDS011;31439;53.512;10.206;2024-02-16T08:32:29;6.50;;;2.50;;
45728;SDS011;31439;53.512;10.206;2024-02-16T08:34:55;7.25;;;2.55;;
45728;SDS011;31439;53.512;10.206;2024-02-16T08:37:23;7.57;;;2.60;;
45728;SDS011;31439;53.512;10.206;2024-02-16T08:39:49;7.07;;;2.58;;
45728;SDS011;31439;53.512;10.206;2024-02-16T08:42:15;7.50;;;2.72;;
45728;SDS011;31439;53.512;10.206;2024-02-16T08:44:41;5.68;;;2.47;;
45728;SDS011;31439;53.512;10.206;2024-02-16T08:47:08;9.77;;;2.30;;
45728;SDS011;31439;53.512;10.206;2024-02-16T08:49:34;6.28;;;2.30;;
45728;SDS011;31439;53.512;10.206;2024-02-16T08:52:00;5.63;;;2.20;;
45728;SDS011;31439;53.512;10.206;2024-02-16T08:54:26;8.55;;;2.45;;
45728;SDS011;31439;53.512;10.206;2024-02-16T08:56:53;9.75;;;2.60;;
45728;SDS011;31439;53.512;10.206;2024-02-16T08:59:19;4.97;;;2.20;;
45728;SDS011;31439;53.512;10.206;2024-02-16T09:01:46;4.05;;;2.40;;
45728;SDS011;31439;53.512;10.206;2024-02-16T09:04:12;4.85;;;2.20;;
45728;SDS011;31439;53.512;10.206;2024-02-16T09:06:38;7.28;;;2.60;;
45728;SDS011;31439;53.512;10.206;2024-02-16T09:09:04;3.60;;;2.22;;
45728;SDS011;31439;53.512;10.206;2024-02-16T09:11:32;4.75;;;2.20;;
45728;SDS011;31439;53.512;10.206;2024-02-16T09:14:01;6.13;;;2.28;;
45728;SDS011;31439;53.512;10.206;2024-02-16T09:16:27;4.03;;;1.98;;
45728;SDS011;31439;53.512;10.206;2024-02-16T09:18:53;3.90;;;2.22;;
45728;SDS011;31439;53.512;10.206;2024-02-16T09:21:23;7.18;;;2.22;;
45728;SDS011;31439;53.512;10.206;2024-02-16T09:23:52;5.53;;;2.42;;
45728;SDS011;31439;53.512;10.206;2024-02-16T09:26:18;6.30;;;2.20;;
45728;SDS011;31439;53.512;10.206;2024-02-16T09:28:45;5.18;;;2.10;;
45728;SDS011;31439;53.512;10.206;2024-02-16T09:31:14;4.80;;;2.25;;
45728;SDS011;31439;53.512;10.206;2024-02-16T09:33:43;5.82;;;2.08;;
45728;SDS011;31439;53.512;10.206;2024-02-16T09:36:10;7.90;;;2.08;;
45728;SDS011;31439;53.512;10.206;2024-02-16T09:38:39;7.88;;;2.22;;
45728;SDS011;31439;53.512;10.206;2024-02-16T10:00:08;17.88;;;4.07;;
45728;SDS011;31439;53.512;10.206;2024-02-16T10:02:43;27.37;;;4.50;;
45728;SDS011;31439;53.512;10.206;2024-02-16T10:05:19;17.42;;;2.83;;
45728;SDS011;31439;53.512;10.206;2024-02-16T10:07:48;7.50;;;2.85;;
45728;SDS011;31439;53.512;10.206;2024-02-16T10:10:27;6.22;;;2.30;;
45728;SDS011;31439;53.512;10.206;2024-02-16T10:13:06;7.40;;;2.38;;
45728;SDS011;31439;53.512;10.206;2024-02-16T10:15:33;7.82;;;2.50;;
45728;SDS011;31439;53.512;10.206;2024-02-16T10:18:03;6.60;;;2.30;;
45728;SDS011;31439;53.512;10.206;2024-02-16T10:20:29;4.90;;;2.35;;
45728;SDS011;31439;53.512;10.206;2024-02-16T10:25:59;6.57;;;2.42;;
45728;SDS011;31439;53.512;10.206;2024-02-16T10:28:26;4.65;;;2.40;;
45728;SDS011;31439;53.512;10.206;2024-02-16T10:31:14;5.03;;;2.22;;
45728;SDS011;31439;53.512;10.206;2024-02-16T10:33:58;5.85;;;2.10;;
45728;SDS011;31439;53.512;10.206;2024-02-16T10:36:30;8.93;;;1.83;;
45728;SDS011;31439;53.512;10.206;2024-02-16T10:38:59;6.68;;;2.92;;
45728;SDS011;31439;53.512;10.206;2024-02-16T10:41:33;19.58;;;2.58;;
45728;SDS011;31439;53.512;10.206;2024-02-16T10:43:59;8.05;;;3.03;;
45728;SDS011;31439;53.512;10.206;2024-02-16T10:46:26;4.60;;;2.20;;
45728;SDS011;31439;53.512;10.206;2024-02-16T10:48:56;5.00;;;2.55;;
45728;SDS011;31439;53.512;10.206;2024-02-16T10:51:28;5.72;;;2.50;;
45728;SDS011;31439;53.512;10.206;2024-02-16T10:53:56;6.43;;;2.53;;
45728;SDS011;31439;53.512;10.206;2024-02-16T10:56:31;6.80;;;2.10;;
45728;SDS011;31439;53.512;10.206;2024-02-16T10:59:03;4.43;;;2.10;;
45728;SDS011;31439;53.512;10.206;2024-02-16T11:01:39;5.60;;;2.30;;
45728;SDS011;31439;53.512;10.206;2024-02-16T11:04:06;5.63;;;2.50;;
45728;SDS011;31439;53.512;10.206;2024-02-16T11:06:44;4.32;;;2.10;;
45728;SDS011;31439;53.512;10.206;2024-02-16T11:12:02;7.32;;;2.75;;
45728;SDS011;31439;53.512;10.206;2024-02-16T11:14:37;8.93;;;2.22;;
45728;SDS011;31439;53.512;10.206;2024-02-16T11:17:13;16.73;;;3.25;;
45728;SDS011;31439;53.512;10.206;2024-02-16T11:19:44;14.32;;;2.92;;
45728;SDS011;31439;53.512;10.206;2024-02-16T11:22:11;31.83;;;5.13;;
45728;SDS011;31439;53.512;10.206;2024-02-16T11:24:50;23.83;;;3.42;;
45728;SDS011;31439;53.512;10.206;2024-02-16T11:27:18;10.30;;;3.33;;
45728;SDS011;31439;53.512;10.206;2024-02-16T11:29:47;8.55;;;2.42;;
45728;SDS011;31439;53.512;10.206;2024-02-16T11:32:18;34.30;;;4.35;;
45728;SDS011;31439;53.512;10.206;2024-02-16T11:34:45;7.57;;;3.20;;
45728;SDS011;31439;53.512;10.206;2024-02-16T11:37:12;6.18;;;2.05;;
45728;SDS011;31439;53.512;10.206;2024-02-16T11:39:39;14.65;;;3.38;;
45728;SDS011;31439;53.512;10.206;2024-02-16T11:42:10;4.53;;;1.90;;
45728;SDS011;31439;53.512;10.206;2024-02-16T11:44:37;6.03;;;2.00;;
45728;SDS011;31439;53.512;10.206;2024-02-16T11:47:05;6.63;;;2.20;;
45728;SDS011;31439;53.512;10.206;2024-02-16T11:49:33;3.22;;;1.85;;
45728;SDS011;31439;53.512;10.206;2024-02-16T11:52:00;4.10;;;1.98;;
45728;SDS011;31439;53.512;10.206;2024-02-16T11:54:26;4.63;;;2.00;;
45728;SDS011;31439;53.512;10.206;2024-02-16T11:56:52;4.70;;;1.80;;
45728;SDS011;31439;53.512;10.206;2024-02-16T11:59:19;5.20;;;2.00;;
45728;SDS011;31439;53.512;10.206;2024-02-16T12:01:49;4.18;;;1.90;;
45728;SDS011;31439;53.512;10.206;2024-02-16T12:04:29;3.97;;;2.17;;
45728;SDS011;31439;53.512;10.206;2024-02-16T12:06:58;6.03;;;2.40;;
45728;SDS011;31439;53.512;10.206;2024-02-16T12:09:25;3.60;;;2.13;;
45728;SDS011;31439;53.512;10.206;2024-02-16T12:11:54;4.35;;;1.90;;
45728;SDS011;31439;53.512;10.206;2024-02-16T12:14:21;4.45;;;2.10;;
45728;SDS011;31439;53.512;10.206;2024-02-16T12:16:51;6.63;;;2.45;;
45728;SDS011;31439;53.512;10.206;2024-02-16T12:19:20;3.95;;;2.00;;
45728;SDS011;31439;53.512;10.206;2024-02-16T12:21:51;5.88;;;2.28;;
45728;SDS011;31439;53.512;10.206;2024-02-16T12:24:17;9.57;;;2.75;;
45728;SDS011;31439;53.512;10.206;2024-02-16T12:26:43;6.22;;;2.47;;
45728;SDS011;31439;53.512;10.206;2024-02-16T12:29:10;7.60;;;2.70;;
45728;SDS011;31439;53.512;10.206;2024-02-16T12:31:39;4.60;;;2.30;;
45728;SDS011;31439;53.512;10.206;2024-02-16T12:34:06;6.28;;;2.20;;
45728;SDS011;31439;53.512;10.206;2024-02-16T12:36:33;4.60;;;2.10;;
45728;SDS011;31439;53.512;10.206;2024-02-16T12:39:02;7.43;;;2.35;;
45728;SDS011;31439;53.512;10.206;2024-02-16T12:41:37;8.88;;;2.40;;
45728;SDS011;31439;53.512;10.206;2024-02-16T12:44:03;4.53;;;2.40;;
45728;SDS011;31439;53.512;10.206;2024-02-16T12:46:30;6.55;;;2.58;;
45728;SDS011;31439;53.512;10.206;2024-02-16T12:48:56;4.88;;;2.28;;
45728;SDS011;31439;53.512;10.206;2024-02-16T12:51:22;5.40;;;2.40;;
45728;SDS011;31439;53.512;10.206;2024-02-16T12:53:48;4.47;;;2.22;;
45728;SDS011;31439;53.512;10.206;2024-02-16T12:56:14;7.00;;;2.42;;
45728;SDS011;31439;53.512;10.206;2024-02-16T12:58:40;4.13;;;2.35;;
45728;SDS011;31439;53.512;10.206;2024-02-16T13:01:06;6.97;;;2.55;;
45728;SDS011;31439;53.512;10.206;2024-02-16T13:03:36;5.82;;;2.42;;
45728;SDS011;31439;53.512;10.206;2024-02-16T13:06:03;6.85;;;2.90;;
45728;SDS011;31439;53.512;10.206;2024-02-16T13:08:30;8.65;;;2.80;;
45728;SDS011;31439;53.512;10.206;2024-02-16T13:10:56;6.88;;;2.50;;
45728;SDS011;31439;53.512;10.206;2024-02-16T13:13:23;5.95;;;2.80;;
45728;SDS011;31439;53.512;10.206;2024-02-16T13:15:49;5.18;;;2.70;;
45728;SDS011;31439;53.512;10.206;2024-02-16T13:18:15;6.20;;;2.72;;
45728;SDS011;31439;53.512;10.206;2024-02-16T13:20:42;12.20;;;4.50;;
45728;SDS011;31439;53.512;10.206;2024-02-16T13:23:08;8.85;;;3.75;;
45728;SDS011;31439;53.512;10.206;2024-02-16T13:25:34;5.90;;;2.67;;
45728;SDS011;31439;53.512;10.206;2024-02-16T13:28:01;7.22;;;2.85;;
45728;SDS011;31439;53.512;10.206;2024-02-16T13:30:27;5.85;;;2.72;;
45728;SDS011;31439;53.512;10.206;2024-02-16T13:32:53;7.10;;;2.65;;
45728;SDS011;31439;53.512;10.206;2024-02-16T13:35:19;7.40;;;2.70;;
45728;SDS011;31439;53.512;10.206;2024-02-16T13:37:45;4.72;;;2.60;;
45728;SDS011;31439;53.512;10.206;2024-02-16T13:40:15;5.57;;;3.10;;
45728;SDS011;31439;53.512;10.206;2024-02-16T13:42:42;6.93;;;2.90;;
45728;SDS011;31439;53.512;10.206;2024-02-16T13:45:08;7.05;;;2.60;;
45728;SDS011;31439;53.512;10.206;2024-02-16T13:47:36;7.82;;;2.83;;
45728;SDS011;31439;53.512;10.206;2024-02-16T13:50:04;6.95;;;2.75;;
45728;SDS011;31439;53.512;10.206;2024-02-16T13:52:31;7.40;;;2.90;;
45728;SDS011;31439;53.512;10.206;2024-02-16T13:54:57;6.90;;;3.13;;
45728;SDS011;31439;53.512;10.206;2024-02-16T13:57:23;6.20;;;3.05;;
45728;SDS011;31439;53.512;10.206;2024-02-16T13:59:49;5.75;;;2.90;;
45728;SDS011;31439;53.512;10.206;2024-02-16T14:02:15;7.55;;;3.50;;
45728;SDS011;31439;53.512;10.206;2024-02-16T14:04:42;10.18;;;3.63;;
45728;SDS011;31439;53.512;10.206;2024-02-16T14:07:08;6.20;;;3.20;;
45728;SDS011;31439;53.512;10.206;2024-02-16T14:09:35;7.30;;;3.60;;
45728;SDS011;31439;53.512;10.206;2024-02-16T14:12:01;7.07;;;3.05;;
45728;SDS011;31439;53.512;10.206;2024-02-16T14:14:27;8.00;;;3.72;;
45728;SDS011;31439;53.512;10.206;2024-02-16T14:16:53;7.45;;;3.70;;
45728;SDS011;31439;53.512;10.206;2024-02-16T14:19:20;7.70;;;3.25;;
45728;SDS011;31439;53.512;10.206;2024-02-16T14:21:46;5.90;;;3.15;;
45728;SDS011;31439;53.512;10.206;2024-02-16T14:24:15;7.18;;;3.30;;
45728;SDS011;31439;53.512;10.206;2024-02-16T14:26:42;10.85;;;3.05;;
45728;SDS011;31439;53.512;10.206;2024-02-16T14:29:08;9.15;;;4.13;;
45728;SDS011;31439;53.512;10.206;2024-02-16T14:31:35;8.80;;;3.22;;
45728;SDS011;31439;53.512;10.206;2024-02-16T14:34:01;5.55;;;3.22;;
45728;SDS011;31439;53.512;10.206;2024-02-16T14:36:28;8.80;;;3.63;;
45728;SDS011;31439;53.512;10.206;2024-02-16T14:38:54;7.32;;;3.35;;
45728;SDS011;31439;53.512;10.206;2024-02-16T14:41:20;8.98;;;3.78;;
45728;SDS011;31439;53.512;10.206;2024-02-16T14:43:47;8.27;;;3.88;;
45728;SDS011;31439;53.512;10.206;2024-02-16T14:46:14;9.48;;;3.60;;
45728;SDS011;31439;53.512;10.206;2024-02-16T14:48:41;7.78;;;3.58;;
45728;SDS011;31439;53.512;10.206;2024-02-16T14:51:07;8.82;;;3.92;;
45728;SDS011;31439;53.512;10.206;2024-02-16T14:53:33;8.63;;;3.80;;
45728;SDS011;31439;53.512;10.206;2024-02-16T14:55:59;8.32;;;3.55;;
45728;SDS011;31439;53.512;10.206;2024-02-16T14:58:25;6.93;;;3.55;;